createdAt,value
2022-08-16T00:00:21.988Z,82.58
2022-08-16T00:01:13.049Z,82.55
2022-08-16T00:02:12.825Z,82.71
2022-08-16T00:03:03.157Z,83.07
2022-08-16T00:03:57.238Z,83.32
2022-08-16T00:04:52.280Z,83.47
2022-08-16T00:05:48.542Z,83.71
2022-08-16T00:06:42.308Z,83.92
2022-08-16T00:07:37.341Z,83.80
2022-08-16T00:08:37.137Z,83.79
2022-08-16T00:09:27.688Z,83.82
2022-08-16T00:10:22.750Z,83.93
2022-08-16T00:11:17.780Z,83.71
2022-08-16T00:12:12.834Z,83.24
2022-08-16T00:13:08.920Z,82.82
2022-08-16T00:14:08.689Z,82.47
2022-08-16T00:14:59.206Z,82.42
2022-08-16T00:15:54.170Z,82.37
2022-08-16T00:17:00.957Z,82.29
2022-08-16T00:17:56.757Z,82.43
2022-08-16T00:18:39.515Z,82.61
2022-08-16T00:19:41.610Z,82.84
2022-08-16T00:20:29.644Z,82.90
2022-08-16T00:21:23.739Z,82.77
2022-08-16T00:22:18.750Z,82.51
2022-08-16T00:23:13.820Z,82.54
2022-08-16T00:24:11.401Z,82.37
2022-08-16T00:25:04.358Z,82.54
2022-08-16T00:26:34.885Z,82.52
2022-08-16T00:26:55.627Z,82.36
2022-08-16T00:27:49.886Z,82.28
2022-08-16T00:28:45.040Z,82.21
2022-08-16T00:29:40.311Z,82.16
2022-08-16T00:30:35.518Z,82.28
2022-08-16T00:31:58.808Z,82.42
2022-08-16T00:32:26.955Z,82.57
2022-08-16T00:33:23.596Z,82.81
2022-08-16T00:34:18.131Z,83.20
2022-08-16T00:35:15.552Z,83.41
2022-08-16T00:36:08.276Z,83.49
2022-08-16T00:37:03.741Z,83.46
2022-08-16T00:37:59.526Z,83.40
2022-08-16T00:38:54.003Z,83.34
2022-08-16T00:39:57.771Z,83.37
2022-08-16T00:40:50.620Z,83.56
2022-08-16T00:41:41.996Z,83.86
2022-08-16T00:42:36.225Z,83.75
2022-08-16T00:43:42.462Z,83.34
2022-08-16T00:44:32.653Z,83.20
2022-08-16T00:45:25.013Z,83.14
2022-08-16T00:46:22.470Z,82.96
2022-08-16T00:47:13.422Z,82.92
2022-08-16T00:48:28.632Z,82.76
2022-08-16T00:49:03.744Z,82.93
2022-08-16T00:49:57.980Z,82.89
2022-08-16T00:50:55.368Z,82.85
2022-08-16T00:51:55.195Z,82.93
2022-08-16T00:52:45.976Z,83.08
2022-08-16T00:53:39.100Z,83.13
2022-08-16T00:54:33.227Z,83.24
2022-08-16T00:55:28.219Z,83.34
2022-08-16T00:56:57.803Z,83.45
2022-08-16T00:57:19.406Z,83.54
2022-08-16T00:58:16.254Z,83.58
2022-08-16T00:59:09.576Z,83.61
2022-08-16T01:00:03.938Z,83.70
2022-08-16T01:00:58.895Z,83.81
2022-08-16T01:01:53.928Z,83.81
2022-08-16T01:02:49.188Z,83.72
2022-08-16T01:03:43.960Z,83.77
2022-08-16T01:04:40.035Z,83.69
2022-08-16T01:05:35.201Z,83.49
2022-08-16T01:06:39.803Z,83.30
2022-08-16T01:07:25.492Z,83.18
2022-08-16T01:08:34.917Z,82.95
2022-08-16T01:09:15.706Z,82.99
2022-08-16T01:10:16.075Z,82.86
2022-08-16T01:11:06.480Z,82.95
2022-08-16T01:12:00.658Z,83.30
2022-08-16T01:12:56.657Z,83.42
2022-08-16T01:13:51.813Z,83.40
2022-08-16T01:14:47.171Z,83.22
2022-08-16T01:15:44.015Z,83.16
2022-08-16T01:16:39.022Z,83.05
2022-08-16T01:17:36.592Z,82.90
2022-08-16T01:18:40.377Z,83.03
2022-08-16T01:19:26.211Z,82.95
2022-08-16T01:20:24.359Z,82.97
2022-08-16T01:21:22.455Z,83.31
2022-08-16T01:22:47.588Z,83.39
2022-08-16T01:23:09.328Z,83.41
2022-08-16T01:24:03.589Z,83.11
2022-08-16T01:24:59.311Z,83.14
2022-08-16T01:25:59.940Z,83.26
2022-08-16T01:26:50.803Z,83.29
2022-08-16T01:27:45.557Z,83.31
2022-08-16T01:28:45.295Z,83.42
2022-08-16T01:29:56.831Z,83.76
2022-08-16T01:30:32.234Z,83.76
2022-08-16T01:31:31.002Z,83.63
2022-08-16T01:32:33.167Z,83.70
2022-08-16T01:33:19.337Z,83.87
2022-08-16T01:34:25.104Z,84.06
2022-08-16T01:35:09.531Z,84.10
2022-08-16T01:36:09.387Z,84.28
2022-08-16T01:37:00.059Z,84.52
2022-08-16T01:37:54.628Z,84.72
2022-08-16T01:38:53.248Z,84.74
2022-08-16T01:39:46.384Z,84.71
2022-08-16T01:40:40.584Z,84.63
2022-08-16T01:41:41.910Z,84.82
2022-08-16T01:42:31.702Z,85.02
2022-08-16T01:43:25.714Z,84.94
2022-08-16T01:44:20.935Z,84.71
2022-08-16T01:45:16.092Z,84.29
2022-08-16T01:46:17.464Z,84.28
2022-08-16T01:47:07.216Z,84.43
2022-08-16T01:48:05.663Z,84.33
2022-08-16T01:49:01.682Z,84.40
2022-08-16T01:50:42.342Z,84.47
2022-08-16T01:51:08.857Z,84.63
2022-08-16T01:51:49.154Z,84.50
2022-08-16T01:52:46.521Z,84.19
2022-08-16T01:53:40.435Z,84.07
2022-08-16T01:54:33.230Z,83.94
2022-08-16T01:55:35.607Z,83.92
2022-08-16T01:56:25.331Z,83.88
2022-08-16T01:57:18.291Z,84.02
2022-08-16T01:58:13.667Z,83.98
2022-08-16T01:59:16.019Z,83.99
2022-08-16T02:00:05.068Z,84.29
2022-08-16T02:01:00.220Z,84.59
2022-08-16T02:01:59.746Z,84.30
2022-08-16T02:02:52.501Z,84.18
2022-08-16T02:03:45.571Z,84.39
2022-08-16T02:04:49.779Z,84.74
2022-08-16T02:05:36.934Z,85.08
2022-08-16T02:06:34.726Z,85.21
2022-08-16T02:07:27.127Z,85.39
2022-08-16T02:08:33.463Z,85.51
2022-08-16T02:09:17.672Z,85.75
2022-08-16T02:10:11.337Z,85.76
2022-08-16T02:11:06.470Z,85.61
2022-08-16T02:12:43.583Z,85.49
2022-08-16T02:13:00.009Z,85.55
2022-08-16T02:13:55.787Z,85.82
2022-08-16T02:14:50.866Z,85.46
2022-08-16T02:15:45.997Z,85.21
2022-08-16T02:16:40.974Z,85.04
2022-08-16T02:17:35.974Z,85.04
2022-08-16T02:18:31.048Z,85.06
2022-08-16T02:19:58.486Z,85.04
2022-08-16T02:20:26.233Z,84.89
2022-08-16T02:21:17.334Z,84.72
2022-08-16T02:22:33.562Z,84.78
2022-08-16T02:23:07.469Z,84.60
2022-08-16T02:24:01.553Z,84.47
2022-08-16T02:24:57.577Z,84.51
2022-08-16T02:25:53.997Z,84.46
2022-08-16T02:26:47.895Z,84.71
2022-08-16T02:27:44.752Z,84.84
2022-08-16T02:28:45.341Z,84.90
2022-08-16T02:29:36.085Z,85.12
2022-08-16T02:30:36.976Z,85.46
2022-08-16T02:32:03.157Z,85.74
2022-08-16T02:33:02.564Z,86.04
2022-08-16T02:33:17.482Z,85.99
2022-08-16T02:34:12.089Z,86.09
2022-08-16T02:35:06.537Z,85.83
2022-08-16T02:36:01.572Z,85.92
2022-08-16T02:36:56.665Z,86.11
2022-08-16T02:37:52.956Z,86.37
2022-08-16T02:38:46.773Z,86.60
2022-08-16T02:39:41.985Z,86.62
2022-08-16T02:40:37.395Z,86.37
2022-08-16T02:41:32.069Z,86.22
2022-08-16T02:42:28.223Z,86.18
2022-08-16T02:43:26.706Z,86.03
2022-08-16T02:44:18.236Z,85.58
2022-08-16T02:45:12.196Z,85.20
2022-08-16T02:46:07.461Z,85.17
2022-08-16T02:47:02.401Z,85.30
2022-08-16T02:48:00.224Z,85.36
2022-08-16T02:48:52.545Z,85.42
2022-08-16T02:50:52.315Z,85.74
2022-08-16T02:51:04.119Z,85.66
2022-08-16T02:51:39.233Z,85.55
2022-08-16T02:52:33.468Z,85.28
2022-08-16T02:53:28.663Z,85.00
2022-08-16T02:54:24.489Z,84.82
2022-08-16T02:55:19.634Z,84.71
2022-08-16T02:56:16.294Z,84.71
2022-08-16T02:57:10.503Z,84.61
2022-08-16T02:58:06.494Z,84.46
2022-08-16T02:59:01.641Z,84.22
2022-08-16T02:59:56.912Z,83.98
2022-08-16T03:00:52.723Z,83.89
2022-08-16T03:01:47.911Z,84.09
2022-08-16T03:02:43.667Z,84.15
2022-08-16T03:04:39.315Z,84.20
2022-08-16T03:04:50.312Z,84.34
2022-08-16T03:05:31.593Z,84.62
2022-08-16T03:06:42.003Z,84.73
2022-08-16T03:07:27.596Z,84.78
2022-08-16T03:08:52.625Z,84.93
2022-08-16T03:09:16.321Z,84.87
2022-08-16T03:10:06.617Z,84.52
2022-08-16T03:11:01.740Z,84.24
2022-08-16T03:11:58.464Z,84.14
2022-08-16T03:12:55.438Z,84.06
2022-08-16T03:13:51.182Z,83.98
2022-08-16T03:14:44.770Z,84.09
2022-08-16T03:15:40.013Z,84.15
2022-08-16T03:16:39.082Z,84.11
2022-08-16T03:17:32.634Z,84.19
2022-08-16T03:18:40.551Z,84.20
2022-08-16T03:19:23.595Z,84.11
2022-08-16T03:20:18.484Z,84.25
2022-08-16T03:21:13.605Z,84.29
2022-08-16T03:22:09.554Z,84.32
2022-08-16T03:23:04.685Z,84.50
2022-08-16T03:23:59.843Z,84.62
2022-08-16T03:24:57.522Z,84.64
2022-08-16T03:25:50.841Z,84.77
2022-08-16T03:26:46.087Z,85.02
2022-08-16T03:27:42.937Z,85.18
2022-08-16T03:28:38.033Z,85.00
2022-08-16T03:29:33.876Z,85.12
2022-08-16T03:30:29.092Z,85.19
2022-08-16T03:31:24.421Z,85.32
2022-08-16T03:32:19.971Z,85.42
2022-08-16T03:33:15.234Z,85.59
2022-08-16T03:34:11.070Z,85.84
2022-08-16T03:35:06.207Z,85.99
2022-08-16T03:36:19.886Z,86.06
2022-08-16T03:36:57.724Z,86.32
2022-08-16T03:38:02.659Z,86.31
2022-08-16T03:38:47.814Z,86.50
2022-08-16T03:39:42.519Z,86.57
2022-08-16T03:40:36.916Z,86.49
2022-08-16T03:41:49.780Z,86.37
2022-08-16T03:42:28.058Z,86.38
2022-08-16T03:43:22.134Z,86.41
2022-08-16T03:44:44.042Z,86.44
2022-08-16T03:45:13.145Z,86.56
2022-08-16T03:46:07.165Z,86.34
2022-08-16T03:47:02.204Z,86.32
2022-08-16T03:47:58.578Z,86.54
2022-08-16T03:48:53.096Z,86.54
2022-08-16T03:49:51.771Z,86.70
2022-08-16T03:50:44.156Z,86.61
2022-08-16T03:51:40.395Z,86.63
2022-08-16T03:52:35.180Z,86.83
2022-08-16T03:53:37.636Z,87.19
2022-08-16T03:54:28.588Z,87.30
2022-08-16T03:55:21.045Z,87.45
2022-08-16T03:56:20.084Z,87.64
2022-08-16T03:57:15.604Z,87.72
2022-08-16T03:58:06.423Z,87.78
2022-08-16T03:59:01.540Z,87.70
2022-08-16T03:59:56.642Z,87.72
2022-08-16T04:00:56.809Z,87.77
2022-08-16T04:01:49.062Z,87.74
2022-08-16T04:02:42.726Z,88.00
2022-08-16T04:03:37.721Z,88.18
2022-08-16T04:04:33.994Z,88.33
2022-08-16T04:05:27.913Z,88.15
2022-08-16T04:06:22.975Z,87.84
2022-08-16T04:07:17.926Z,87.51
2022-08-16T04:08:23.735Z,87.09
2022-08-16T04:09:12.558Z,86.65
2022-08-16T04:10:36.794Z,86.28
2022-08-16T04:11:02.369Z,86.15
2022-08-16T04:11:56.423Z,86.20
2022-08-16T04:12:53.503Z,86.06
2022-08-16T04:14:01.372Z,86.07
2022-08-16T04:14:46.457Z,86.31
2022-08-16T04:15:38.058Z,86.64
2022-08-16T04:16:32.332Z,86.59
2022-08-16T04:17:27.610Z,86.71
2022-08-16T04:18:22.870Z,86.85
2022-08-16T04:19:18.130Z,87.03
2022-08-16T04:20:31.126Z,87.27
2022-08-16T04:21:09.816Z,87.38
2022-08-16T04:22:08.795Z,87.12
2022-08-16T04:22:59.883Z,87.13
2022-08-16T04:23:54.735Z,87.54
2022-08-16T04:24:54.445Z,87.91
2022-08-16T04:25:47.107Z,88.20
2022-08-16T04:26:46.136Z,88.27
2022-08-16T04:27:36.886Z,88.39
2022-08-16T04:28:54.593Z,88.65
2022-08-16T04:29:26.993Z,88.71
2022-08-16T04:30:32.503Z,88.81
2022-08-16T04:31:17.828Z,88.88
2022-08-16T04:32:12.184Z,89.00
2022-08-16T04:33:07.594Z,89.14
2022-08-16T04:34:03.050Z,89.24
2022-08-16T04:34:59.519Z,89.27
2022-08-16T04:35:53.761Z,89.31
2022-08-16T04:36:49.143Z,89.30
2022-08-16T04:37:44.492Z,89.15
2022-08-16T04:38:40.036Z,89.07
2022-08-16T04:39:36.523Z,89.18
2022-08-16T04:40:31.735Z,89.14
2022-08-16T04:41:32.350Z,89.07
2022-08-16T04:42:25.838Z,88.98
2022-08-16T04:43:17.578Z,88.73
2022-08-16T04:44:33.109Z,88.80
2022-08-16T04:45:08.151Z,88.88
2022-08-16T04:46:03.089Z,88.80
2022-08-16T04:47:00.722Z,88.85
2022-08-16T04:47:56.084Z,88.94
2022-08-16T04:48:48.567Z,89.10
2022-08-16T04:49:45.527Z,89.12
2022-08-16T04:50:41.755Z,89.04
2022-08-16T04:51:35.747Z,89.10
2022-08-16T04:52:34.784Z,89.03
2022-08-16T04:53:27.637Z,88.89
2022-08-16T04:54:23.024Z,88.99
2022-08-16T04:55:18.456Z,88.97
2022-08-16T04:56:13.812Z,88.89
2022-08-16T04:57:09.216Z,88.62
2022-08-16T04:58:04.627Z,88.19
2022-08-16T04:59:01.016Z,87.43
2022-08-16T04:59:55.434Z,86.90
2022-08-16T05:00:51.269Z,86.74
2022-08-16T05:01:57.949Z,86.25
2022-08-16T05:02:43.039Z,85.84
2022-08-16T05:03:41.939Z,85.75
2022-08-16T05:04:33.633Z,85.89
2022-08-16T05:05:32.675Z,85.59
2022-08-16T05:06:44.850Z,85.36
2022-08-16T05:07:20.541Z,85.18
2022-08-16T05:08:28.893Z,84.97
2022-08-16T05:09:10.625Z,84.76
2022-08-16T05:10:05.006Z,84.71
2022-08-16T05:11:03.594Z,84.81
2022-08-16T05:11:57.235Z,84.71
2022-08-16T05:12:51.581Z,84.64
2022-08-16T05:13:46.721Z,84.76
2022-08-16T05:14:45.677Z,84.57
2022-08-16T05:15:36.720Z,84.59
2022-08-16T05:16:31.765Z,84.67
2022-08-16T05:17:26.892Z,84.75
2022-08-16T05:18:26.933Z,84.75
2022-08-16T05:19:17.967Z,84.82
2022-08-16T05:20:38.993Z,85.08
2022-08-16T05:21:11.298Z,85.02
2022-08-16T05:22:03.874Z,85.18
2022-08-16T05:22:59.291Z,85.39
2022-08-16T05:23:58.557Z,85.54
2022-08-16T05:24:55.065Z,85.58
2022-08-16T05:25:48.465Z,85.76
2022-08-16T05:26:42.967Z,85.70
2022-08-16T05:27:42.773Z,85.63
2022-08-16T05:28:39.063Z,85.72
2022-08-16T05:30:00.119Z,85.79
2022-08-16T05:30:34.971Z,85.60
2022-08-16T05:31:16.815Z,85.34
2022-08-16T05:32:32.749Z,85.08
2022-08-16T05:33:08.902Z,84.67
2022-08-16T05:34:04.561Z,84.35
2022-08-16T05:34:58.863Z,84.22
2022-08-16T05:35:55.040Z,83.85
2022-08-16T05:36:51.215Z,83.48
2022-08-16T05:37:45.047Z,83.25
2022-08-16T05:38:40.554Z,82.88
2022-08-16T05:39:40.801Z,82.74
2022-08-16T05:40:32.225Z,82.57
2022-08-16T05:41:26.642Z,82.55
2022-08-16T05:42:22.017Z,82.42
2022-08-16T05:43:18.462Z,82.35
2022-08-16T05:44:24.157Z,82.19
2022-08-16T05:45:09.390Z,82.12
2022-08-16T05:46:03.851Z,81.89
2022-08-16T05:47:00.640Z,81.76
2022-08-16T05:48:00.408Z,81.31
2022-08-16T05:49:00.122Z,83.89
2022-08-16T05:49:50.689Z,82.86
2022-08-16T05:50:44.775Z,81.68
2022-08-16T05:51:41.668Z,80.11
2022-08-16T05:52:35.764Z,78.51
2022-08-16T05:53:31.141Z,77.29
2022-08-16T05:54:27.571Z,75.58
2022-08-16T05:55:21.929Z,73.94
2022-08-16T05:56:19.546Z,72.68
2022-08-16T05:57:13.264Z,72.21
2022-08-16T05:58:08.156Z,71.51
2022-08-16T05:59:03.195Z,70.88
2022-08-16T06:00:00.015Z,70.64
2022-08-16T06:00:53.309Z,69.96
2022-08-16T06:01:48.447Z,69.81
2022-08-16T06:02:43.421Z,69.46
2022-08-16T06:03:38.513Z,69.17
2022-08-16T06:04:36.724Z,68.68
2022-08-16T06:05:28.645Z,68.11
2022-08-16T06:06:28.202Z,67.67
2022-08-16T06:07:26.389Z,68.11
2022-08-16T06:08:31.685Z,68.30
2022-08-16T06:09:11.084Z,68.85
2022-08-16T06:10:05.651Z,68.55
2022-08-16T06:11:05.611Z,68.07
2022-08-16T06:11:57.356Z,67.93
2022-08-16T06:12:55.355Z,68.15
2022-08-16T06:13:46.594Z,68.74
2022-08-16T06:14:41.664Z,68.71
2022-08-16T06:15:36.737Z,69.60
2022-08-16T06:16:31.853Z,70.12
2022-08-16T06:17:43.936Z,70.61
2022-08-16T06:18:22.971Z,72.08
2022-08-16T06:19:17.294Z,73.42
2022-08-16T06:20:12.781Z,74.56
2022-08-16T06:21:08.171Z,75.20
2022-08-16T06:22:03.536Z,76.12
2022-08-16T06:23:03.675Z,76.80
2022-08-16T06:23:55.380Z,76.79
2022-08-16T06:24:53.642Z,77.14
2022-08-16T06:25:53.260Z,77.90
2022-08-16T06:26:57.375Z,78.01
2022-08-16T06:27:39.492Z,77.57
2022-08-16T06:28:34.974Z,76.51
2022-08-16T06:29:27.207Z,76.14
2022-08-16T06:30:22.609Z,76.35
2022-08-16T06:31:19.010Z,76.59
2022-08-16T06:32:27.353Z,76.61
2022-08-16T06:33:12.459Z,77.13
2022-08-16T06:34:04.234Z,77.66
2022-08-16T06:35:02.115Z,77.84
2022-08-16T06:35:59.298Z,77.88
2022-08-16T06:36:50.935Z,77.88
2022-08-16T06:37:51.495Z,78.28
2022-08-16T06:38:55.511Z,78.00
2022-08-16T06:39:49.708Z,77.78
2022-08-16T06:40:33.713Z,77.09
2022-08-16T06:41:27.629Z,77.10
2022-08-16T06:42:24.706Z,77.18
2022-08-16T06:43:19.917Z,77.33
2022-08-16T06:44:20.707Z,77.28
2022-08-16T06:45:10.898Z,77.23
2022-08-16T06:46:04.958Z,76.89
2022-08-16T06:47:02.814Z,76.65
2022-08-16T06:47:57.068Z,76.54
2022-08-16T06:48:51.840Z,76.69
2022-08-16T06:49:54.244Z,76.35
2022-08-16T06:50:41.664Z,76.67
2022-08-16T06:51:45.858Z,76.68
2022-08-16T06:52:57.960Z,76.84
2022-08-16T06:53:26.852Z,76.21
2022-08-16T06:54:20.860Z,75.60
2022-08-16T06:55:16.003Z,75.09
2022-08-16T06:56:14.648Z,74.64
2022-08-16T06:57:14.918Z,74.14
2022-08-16T06:58:02.317Z,73.49
2022-08-16T06:58:57.315Z,73.86
2022-08-16T06:59:53.107Z,73.90
2022-08-16T07:00:48.142Z,73.18
2022-08-16T07:01:42.802Z,72.76
2022-08-16T07:02:37.880Z,73.38
2022-08-16T07:03:54.544Z,73.79
2022-08-16T07:04:32.832Z,74.41
2022-08-16T07:05:41.594Z,74.96
2022-08-16T07:06:26.461Z,74.58
2022-08-16T07:07:19.101Z,74.40
2022-08-16T07:08:14.459Z,73.82
2022-08-16T07:09:10.127Z,73.10
2022-08-16T07:10:08.426Z,71.92
2022-08-16T07:11:01.579Z,70.58
2022-08-16T07:11:56.267Z,70.97
2022-08-16T07:13:03.347Z,70.27
2022-08-16T07:14:00.203Z,70.20
2022-08-16T07:14:43.863Z,69.87
2022-08-16T07:15:50.104Z,69.41
2022-08-16T07:16:34.620Z,68.03
2022-08-16T07:17:29.056Z,67.57
2022-08-16T07:18:24.876Z,67.09
2022-08-16T07:19:19.601Z,66.57
2022-08-16T07:20:34.746Z,65.86
2022-08-16T07:21:10.572Z,65.05
2022-08-16T07:22:04.705Z,64.67
2022-08-16T07:23:01.013Z,63.96
2022-08-16T07:23:57.961Z,64.54
2022-08-16T07:24:50.760Z,65.52
2022-08-16T07:25:44.807Z,66.47
2022-08-16T07:26:39.911Z,66.70
2022-08-16T07:27:37.002Z,66.58
2022-08-16T07:28:32.288Z,67.43
2022-08-16T07:29:27.698Z,67.79
2022-08-16T07:30:38.380Z,67.77
2022-08-16T07:31:19.580Z,67.57
2022-08-16T07:32:14.101Z,68.20
2022-08-16T07:33:09.757Z,68.00
2022-08-16T07:34:05.186Z,68.65
2022-08-16T07:35:01.574Z,68.75
2022-08-16T07:35:56.102Z,69.13
2022-08-16T07:36:58.334Z,69.14
2022-08-16T07:37:47.976Z,68.53
2022-08-16T07:38:42.450Z,68.58
2022-08-16T07:39:43.232Z,68.99
2022-08-16T07:40:59.246Z,68.82
2022-08-16T07:41:29.970Z,68.27
2022-08-16T07:42:28.245Z,68.74
2022-08-16T07:43:20.042Z,68.83
2022-08-16T07:44:16.965Z,67.93
2022-08-16T07:45:10.855Z,67.63
2022-08-16T07:46:06.527Z,67.25
2022-08-16T07:47:02.860Z,67.30
2022-08-16T07:47:57.278Z,67.62
2022-08-16T07:48:52.669Z,67.33
2022-08-16T07:49:52.898Z,66.77
2022-08-16T07:50:56.594Z,66.61
2022-08-16T07:51:43.463Z,66.06
2022-08-16T07:52:38.709Z,66.54
2022-08-16T07:53:33.284Z,66.27
2022-08-16T07:54:37.967Z,66.29
2022-08-16T07:55:25.175Z,66.00
2022-08-16T07:56:19.616Z,65.85
2022-08-16T07:57:15.140Z,66.07
2022-08-16T07:58:10.775Z,66.05
2022-08-16T07:59:07.056Z,66.90
2022-08-16T08:00:01.759Z,66.62
2022-08-16T08:00:57.277Z,66.97
2022-08-16T08:01:53.075Z,67.10
2022-08-16T08:02:48.604Z,67.31
2022-08-16T08:03:48.412Z,66.39
2022-08-16T08:04:40.345Z,65.59
2022-08-16T08:05:35.860Z,64.71
2022-08-16T08:06:30.194Z,64.24
2022-08-16T08:07:27.592Z,63.53
2022-08-16T08:08:50.284Z,63.20
2022-08-16T08:09:18.675Z,63.46
2022-08-16T08:10:17.403Z,63.62
2022-08-16T08:11:10.219Z,63.42
2022-08-16T08:12:05.358Z,63.53
2022-08-16T08:13:00.173Z,63.48
2022-08-16T08:13:55.628Z,64.09
2022-08-16T08:14:51.190Z,64.69
2022-08-16T08:15:53.150Z,65.04
2022-08-16T08:16:45.330Z,65.08
2022-08-16T08:17:43.198Z,64.03
2022-08-16T08:18:34.119Z,62.98
2022-08-16T08:19:28.579Z,62.68
2022-08-16T08:20:28.350Z,61.92
2022-08-16T08:21:26.376Z,61.63
2022-08-16T08:22:22.191Z,61.66
2022-08-16T08:23:14.382Z,61.83
2022-08-16T08:24:09.886Z,61.89
2022-08-16T08:25:05.370Z,61.98
2022-08-16T08:26:00.960Z,61.57
2022-08-16T08:26:56.468Z,60.19
2022-08-16T08:27:51.998Z,59.81
2022-08-16T08:28:48.538Z,59.40
2022-08-16T08:29:43.478Z,58.69
2022-08-16T08:30:52.200Z,58.39
2022-08-16T08:31:35.370Z,57.91
2022-08-16T08:33:00.215Z,58.20
2022-08-16T08:33:26.827Z,57.33
2022-08-16T08:34:22.223Z,57.53
2022-08-16T08:35:16.888Z,57.46
2022-08-16T08:36:11.889Z,57.41
2022-08-16T08:37:07.901Z,57.64
2022-08-16T08:38:01.946Z,56.71
2022-08-16T08:38:56.948Z,56.70
2022-08-16T08:39:54.723Z,57.22
2022-08-16T08:40:47.995Z,57.49
2022-08-16T08:41:43.543Z,57.25
2022-08-16T08:42:39.791Z,56.36
2022-08-16T08:43:41.845Z,56.58
2022-08-16T08:44:31.334Z,56.29
2022-08-16T08:45:47.003Z,56.17
2022-08-16T08:46:22.337Z,56.04
2022-08-16T08:47:16.177Z,55.76
2022-08-16T08:48:11.519Z,55.31
2022-08-16T08:49:08.854Z,54.21
2022-08-16T08:50:03.860Z,54.37
2022-08-16T08:50:59.437Z,54.48
2022-08-16T08:51:54.854Z,54.96
2022-08-16T08:52:51.053Z,54.72
2022-08-16T08:53:45.992Z,55.14
2022-08-16T08:54:42.505Z,55.70
2022-08-16T08:55:37.186Z,55.77
2022-08-16T08:56:35.037Z,55.12
2022-08-16T08:57:28.132Z,55.18
2022-08-16T08:58:23.658Z,55.25
2022-08-16T08:59:22.219Z,54.95
2022-08-16T09:00:14.792Z,55.04
2022-08-16T09:01:10.190Z,54.72
2022-08-16T09:02:05.738Z,53.22
2022-08-16T09:03:04.851Z,52.49
2022-08-16T09:04:00.244Z,53.16
2022-08-16T09:04:55.898Z,53.93
2022-08-16T09:05:51.808Z,54.33
2022-08-16T09:06:46.589Z,54.00
2022-08-16T09:08:00.998Z,53.58
2022-08-16T09:08:38.821Z,53.27
2022-08-16T09:09:34.064Z,52.37
2022-08-16T09:10:29.435Z,52.36
2022-08-16T09:11:24.086Z,51.41
2022-08-16T09:12:35.478Z,50.70
2022-08-16T09:13:16.098Z,51.20
2022-08-16T09:14:23.818Z,49.87
2022-08-16T09:15:07.186Z,50.37
2022-08-16T09:16:01.587Z,49.78
2022-08-16T09:17:03.513Z,49.54
2022-08-16T09:17:54.825Z,50.35
2022-08-16T09:18:50.603Z,50.22
2022-08-16T09:19:42.862Z,50.21
2022-08-16T09:20:59.582Z,50.11
2022-08-16T09:21:33.044Z,49.42
2022-08-16T09:22:27.077Z,49.92
2022-08-16T09:23:22.152Z,49.46
2022-08-16T09:24:46.403Z,49.04
2022-08-16T09:25:14.592Z,49.76
2022-08-16T09:26:45.620Z,49.99
2022-08-16T09:27:05.147Z,49.82
2022-08-16T09:28:02.672Z,50.26
2022-08-16T09:29:15.527Z,49.89
2022-08-16T09:29:59.788Z,49.97
2022-08-16T09:30:45.336Z,49.68
2022-08-16T09:31:41.287Z,49.69
2022-08-16T09:32:35.167Z,48.57
2022-08-16T09:33:32.548Z,48.20
2022-08-16T09:34:26.520Z,47.74
2022-08-16T09:35:20.535Z,46.86
2022-08-16T09:36:32.675Z,46.09
2022-08-16T09:37:17.603Z,45.92
2022-08-16T09:38:08.839Z,46.20
2022-08-16T09:39:00.842Z,46.12
2022-08-16T09:39:56.406Z,45.58
2022-08-16T09:40:51.829Z,44.78
2022-08-16T09:41:53.458Z,44.69
2022-08-16T09:42:44.036Z,44.94
2022-08-16T09:43:59.719Z,45.66
2022-08-16T09:45:11.604Z,46.00
2022-08-16T09:45:30.276Z,47.11
2022-08-16T09:46:33.489Z,47.39
2022-08-16T09:47:23.601Z,46.30
2022-08-16T09:48:44.551Z,46.07
2022-08-16T09:49:12.013Z,45.29
2022-08-16T09:50:04.687Z,45.10
2022-08-16T09:51:00.795Z,45.68
2022-08-16T09:51:54.824Z,45.63
2022-08-16T09:52:50.023Z,45.22
2022-08-16T09:53:44.983Z,44.99
2022-08-16T09:54:44.455Z,45.34
2022-08-16T09:55:44.715Z,45.62
2022-08-16T09:56:32.842Z,44.95
2022-08-16T09:57:27.285Z,44.53
2022-08-16T09:58:41.368Z,43.15
2022-08-16T09:59:19.250Z,42.56
2022-08-16T10:00:42.687Z,43.17
2022-08-16T10:01:11.645Z,43.62
2022-08-16T10:02:22.910Z,44.26
2022-08-16T10:03:00.938Z,45.21
2022-08-16T10:04:01.604Z,45.04
2022-08-16T10:04:54.397Z,44.94
2022-08-16T10:05:46.449Z,45.26
2022-08-16T10:06:46.244Z,44.55
2022-08-16T10:07:45.154Z,44.74
2022-08-16T10:08:33.980Z,45.39
2022-08-16T10:09:53.897Z,45.08
2022-08-16T10:10:30.396Z,45.47
2022-08-16T10:11:24.798Z,45.68
2022-08-16T10:12:19.502Z,45.53
2022-08-16T10:13:11.481Z,45.20
2022-08-16T10:14:06.995Z,45.06
2022-08-16T10:15:02.430Z,44.27
2022-08-16T10:15:57.963Z,43.75
2022-08-16T10:16:59.791Z,43.88
2022-08-16T10:17:59.845Z,43.23
2022-08-16T10:19:02.243Z,42.08
2022-08-16T10:19:40.763Z,41.40
2022-08-16T10:20:35.378Z,41.22
2022-08-16T10:21:32.065Z,42.08
2022-08-16T10:22:26.629Z,42.83
2022-08-16T10:23:21.980Z,42.58
2022-08-16T10:24:28.094Z,42.73
2022-08-16T10:27:20.712Z,42.78
2022-08-16T10:27:20.712Z,42.39
2022-08-16T10:27:25.813Z,42.91
2022-08-16T10:28:27.484Z,42.78
2022-08-16T10:28:55.675Z,43.03
2022-08-16T10:30:01.329Z,42.52
2022-08-16T10:30:46.561Z,41.75
2022-08-16T10:31:45.649Z,41.26
2022-08-16T10:32:36.555Z,41.26
2022-08-16T10:33:33.269Z,40.34
2022-08-16T10:34:32.506Z,39.79
2022-08-16T10:35:23.093Z,39.53
2022-08-16T10:36:37.778Z,40.07
2022-08-16T10:37:13.168Z,41.34
2022-08-16T10:38:09.571Z,41.47
2022-08-16T10:39:03.217Z,40.71
2022-08-16T10:39:57.406Z,41.26
2022-08-16T10:40:53.942Z,41.13
2022-08-16T10:41:49.343Z,40.99
2022-08-16T10:42:45.055Z,40.78
2022-08-16T10:43:40.381Z,40.06
2022-08-16T10:44:35.748Z,40.59
2022-08-16T10:45:36.921Z,41.86
2022-08-16T10:46:40.011Z,40.65
2022-08-16T10:47:23.143Z,41.67
2022-08-16T10:48:27.319Z,41.93
2022-08-16T10:49:16.690Z,41.71
2022-08-16T10:50:18.708Z,42.25
2022-08-16T10:51:05.449Z,42.25
2022-08-16T10:52:02.755Z,42.73
2022-08-16T10:52:59.220Z,42.64
2022-08-16T10:53:50.265Z,41.40
2022-08-16T10:55:44.983Z,39.86
2022-08-16T10:55:57.402Z,41.01
2022-08-16T10:56:51.837Z,39.24
2022-08-16T10:57:32.911Z,39.38
2022-08-16T10:58:34.376Z,39.74
2022-08-16T10:59:32.557Z,40.10
2022-08-16T11:00:21.372Z,40.76
2022-08-16T11:01:43.799Z,41.48
2022-08-16T11:02:59.375Z,40.85
2022-08-16T11:03:03.754Z,41.12
2022-08-16T11:04:01.297Z,42.06
2022-08-16T11:05:11.064Z,43.09
2022-08-16T11:05:59.588Z,43.78
2022-08-16T11:07:06.649Z,42.73
2022-08-16T11:07:42.988Z,41.86
2022-08-16T11:08:40.727Z,41.38
2022-08-16T11:09:43.746Z,41.46
2022-08-16T11:11:24.581Z,41.15
2022-08-16T11:12:18.501Z,42.12
2022-08-16T11:13:57.204Z,41.82
2022-08-16T11:14:11.143Z,42.06
2022-08-16T11:15:12.068Z,42.47
2022-08-16T11:16:00.268Z,42.41
2022-08-16T11:17:03.024Z,42.52
2022-08-16T11:18:48.450Z,42.01
2022-08-16T11:18:48.935Z,42.23
2022-08-16T11:20:41.983Z,41.20
2022-08-16T11:21:30.252Z,41.82
2022-08-16T11:22:42.162Z,41.78
2022-08-16T11:23:21.189Z,41.49
2022-08-16T11:24:42.544Z,42.55
2022-08-16T11:25:12.719Z,43.04
2022-08-16T11:26:23.641Z,42.70
2022-08-16T11:27:23.434Z,41.61
2022-08-16T11:28:03.241Z,41.51
2022-08-16T11:29:13.198Z,40.67
2022-08-16T11:29:53.206Z,40.38
2022-08-16T11:30:50.647Z,40.74
2022-08-16T11:31:45.909Z,40.81
2022-08-16T11:32:39.288Z,40.80
2022-08-16T11:34:56.630Z,40.98
2022-08-16T11:36:27.337Z,41.54
2022-08-16T11:37:27.635Z,41.06
2022-08-16T11:38:47.089Z,40.22
2022-08-16T11:39:10.358Z,40.62
2022-08-16T11:40:02.972Z,40.36
2022-08-16T11:40:58.356Z,39.77
2022-08-16T11:41:53.775Z,39.38
2022-08-16T11:42:49.245Z,39.69
2022-08-16T11:43:45.736Z,39.58
2022-08-16T11:44:53.120Z,39.44
2022-08-16T11:45:37.609Z,39.07
2022-08-16T11:46:44.611Z,39.04
2022-08-16T11:47:28.723Z,39.25
2022-08-16T11:48:22.935Z,39.66
2022-08-16T11:49:18.395Z,39.71
2022-08-16T11:50:13.968Z,39.10
2022-08-16T11:51:09.335Z,39.66
2022-08-16T11:52:04.800Z,39.24
2022-08-16T11:53:00.260Z,39.50
2022-08-16T11:53:55.884Z,39.64
2022-08-16T11:54:53.733Z,39.75
2022-08-16T11:55:50.547Z,39.86
2022-08-16T11:56:52.458Z,39.66